sensor_id;sensor_type;location;lat;lon;timestamp;pressure;altitude;pressure_sealevel;temperature
76009;BMP280;64700;52.130;21.270;2023-12-04T00:01:15;100915.00;;;19.55
76009;BMP280;64700;52.130;21.270;2023-12-04T00:03:40;100908.81;;;19.54
76009;BMP280;64700;52.130;21.270;2023-12-04T00:06:06;100915.00;;;19.55
76009;BMP280;64700;52.130;21.270;2023-12-04T00:08:32;100919.38;;;19.52
76009;BMP280;64700;52.130;21.270;2023-12-04T00:10:57;100921.63;;;19.54
76009;BMP280;64700;52.130;21.270;2023-12-04T00:13:22;100918.59;;;19.52
76009;BMP280;64700;52.130;21.270;2023-12-04T00:15:48;100927.19;;;19.50
76009;BMP280;64700;52.130;21.270;2023-12-04T00:18:13;100923.72;;;19.50
76009;BMP280;64700;52.130;21.270;2023-12-04T00:20:38;100929.88;;;19.50
76009;BMP280;64700;52.130;21.270;2023-12-04T00:23:03;100928.41;;;19.49
76009;BMP280;64700;52.130;21.270;2023-12-04T00:25:28;100921.75;;;19.50
76009;BMP280;64700;52.130;21.270;2023-12-04T00:27:53;100929.88;;;19.50
76009;BMP280;64700;52.130;21.270;2023-12-04T00:30:19;100926.88;;;19.48
76009;BMP280;64700;52.130;21.270;2023-12-04T00:32:44;100926.56;;;19.46
76009;BMP280;64700;52.130;21.270;2023-12-04T00:35:09;100930.03;;;19.47
76009;BMP280;64700;52.130;21.270;2023-12-04T00:37:34;100928.06;;;19.47
76009;BMP280;64700;52.130;21.270;2023-12-04T00:40:03;100929.72;;;19.45
76009;BMP280;64700;52.130;21.270;2023-12-04T00:42:29;100933.63;;;19.44
76009;BMP280;64700;52.130;21.270;2023-12-04T00:44:54;100938.63;;;19.45
76009;BMP280;64700;52.130;21.270;2023-12-04T00:47:19;100941.34;;;19.45
76009;BMP280;64700;52.130;21.270;2023-12-04T00:49:44;100935.56;;;19.43
76009;BMP280;64700;52.130;21.270;2023-12-04T00:52:09;100937.09;;;19.44
76009;BMP280;64700;52.130;21.270;2023-12-04T00:54:35;100949.88;;;19.44
76009;BMP280;64700;52.130;21.270;2023-12-04T00:57:03;100947.59;;;19.42
76009;BMP280;64700;52.130;21.270;2023-12-04T00:59:28;100943.38;;;19.41
76009;BMP280;64700;52.130;21.270;2023-12-04T01:01:53;100936.47;;;19.40
76009;BMP280;64700;52.130;21.270;2023-12-04T01:04:19;100941.13;;;19.40
76009;BMP280;64700;52.130;21.270;2023-12-04T01:06:44;100944.91;;;19.42
76009;BMP280;64700;52.130;21.270;2023-12-04T01:09:09;100948.06;;;19.41
76009;BMP280;64700;52.130;21.270;2023-12-04T01:11:34;100945.47;;;19.37
76009;BMP280;64700;52.130;21.270;2023-12-04T01:14:01;100947.75;;;19.39
76009;BMP280;64700;52.130;21.270;2023-12-04T01:16:27;100953.16;;;19.39
76009;BMP280;64700;52.130;21.270;2023-12-04T01:18:52;100955.88;;;19.39
76009;BMP280;64700;52.130;21.270;2023-12-04T01:21:17;100945.47;;;19.37
76009;BMP280;64700;52.130;21.270;2023-12-04T01:23:43;100947.41;;;19.37
76009;BMP280;64700;52.130;21.270;2023-12-04T01:26:09;100945.47;;;19.37
76009;BMP280;64700;52.130;21.270;2023-12-04T01:28:35;100957.53;;;19.36
76009;BMP280;64700;52.130;21.270;2023-12-04T01:31:00;100958.59;;;19.39
76009;BMP280;64700;52.130;21.270;2023-12-04T01:33:25;100958.28;;;19.37
76009;BMP280;64700;52.130;21.270;2023-12-04T01:35:50;100964.91;;;19.36
76009;BMP280;64700;52.130;21.270;2023-12-04T01:38:16;100964.16;;;19.35
76009;BMP280;64700;52.130;21.270;2023-12-04T01:40:41;100964.16;;;19.35
76009;BMP280;64700;52.130;21.270;2023-12-04T01:43:06;100961.88;;;19.34
76009;BMP280;64700;52.130;21.270;2023-12-04T01:45:31;100969.56;;;19.35
76009;BMP280;64700;52.130;21.270;2023-12-04T01:47:57;100968.06;;;19.34
76009;BMP280;64700;52.130;21.270;2023-12-04T01:50:22;100954.63;;;19.31
76009;BMP280;64700;52.130;21.270;2023-12-04T01:52:49;100962.78;;;19.31
76009;BMP280;64700;52.130;21.270;2023-12-04T01:55:14;100962.41;;;19.28
76009;BMP280;64700;52.130;21.270;2023-12-04T01:57:39;100960.47;;;19.29
76009;BMP280;64700;52.130;21.270;2023-12-04T02:00:05;100974.03;;;19.29
76009;BMP280;64700;52.130;21.270;2023-12-04T02:02:36;100970.56;;;19.28
76009;BMP280;64700;52.130;21.270;2023-12-04T02:05:01;100975.22;;;19.28
76009;BMP280;64700;52.130;21.270;2023-12-04T02:07:26;100977.16;;;19.27
76009;BMP280;64700;52.130;21.270;2023-12-04T02:09:52;100977.94;;;19.28
76009;BMP280;64700;52.130;21.270;2023-12-04T02:12:17;100974.16;;;19.25
76009;BMP280;64700;52.130;21.270;2023-12-04T02:14:42;100974.16;;;19.25
76009;BMP280;64700;52.130;21.270;2023-12-04T02:17:08;100966.47;;;19.24
76009;BMP280;64700;52.130;21.270;2023-12-04T02:19:33;100962.25;;;19.23
76009;BMP280;64700;52.130;21.270;2023-12-04T02:21:59;100967.22;;;19.24
76009;BMP280;64700;52.130;21.270;2023-12-04T02:24:24;100974.59;;;19.24
76009;BMP280;64700;52.130;21.270;2023-12-04T02:26:54;100974.59;;;19.24
76009;BMP280;64700;52.130;21.270;2023-12-04T02:29:22;100990.84;;;19.24
76009;BMP280;64700;52.130;21.270;2023-12-04T02:31:48;100994.03;;;19.22
76009;BMP280;64700;52.130;21.270;2023-12-04T02:34:15;100987.09;;;19.21
76009;BMP280;64700;52.130;21.270;2023-12-04T02:36:42;100995.66;;;19.20
76009;BMP280;64700;52.130;21.270;2023-12-04T02:39:08;100989.47;;;19.19
76009;BMP280;64700;52.130;21.270;2023-12-04T02:41:33;100993.38;;;19.18
76009;BMP280;64700;52.130;21.270;2023-12-04T02:44:00;100993.84;;;19.17
76009;BMP280;64700;52.130;21.270;2023-12-04T02:46:26;100998.50;;;19.16
76009;BMP280;64700;52.130;21.270;2023-12-04T02:48:51;101005.88;;;19.16
76009;BMP280;64700;52.130;21.270;2023-12-04T02:51:16;100996.66;;;19.13
76009;BMP280;64700;52.130;21.270;2023-12-04T02:53:41;100997.06;;;19.12
76009;BMP280;64700;52.130;21.270;2023-12-04T02:56:06;101007.50;;;19.13
76009;BMP280;64700;52.130;21.270;2023-12-04T02:58:32;101006.41;;;19.11
76009;BMP280;64700;52.130;21.270;2023-12-04T03:00:59;101012.59;;;19.11
76009;BMP280;64700;52.130;21.270;2023-12-04T03:03:24;101013.00;;;19.10
76009;BMP280;64700;52.130;21.270;2023-12-04T03:05:49;101015.72;;;19.10
76009;BMP280;64700;52.130;21.270;2023-12-04T03:08:14;101013.00;;;19.10
76009;BMP280;64700;52.130;21.270;2023-12-04T03:10:39;101022.38;;;19.09
76009;BMP280;64700;52.130;21.270;2023-12-04T03:13:05;101016.19;;;19.08
76009;BMP280;64700;52.130;21.270;2023-12-04T03:15:30;101026.25;;;19.08
76009;BMP280;64700;52.130;21.270;2023-12-04T03:17:55;101022.03;;;19.07
76009;BMP280;64700;52.130;21.270;2023-12-04T03:20:22;101015.84;;;19.06
76009;BMP280;64700;52.130;21.270;2023-12-04T03:22:47;101014.34;;;19.05
76009;BMP280;64700;52.130;21.270;2023-12-04T03:25:12;101024.75;;;19.07
76009;BMP280;64700;52.130;21.270;2023-12-04T03:27:37;101022.47;;;19.05
76009;BMP280;64700;52.130;21.270;2023-12-04T03:30:03;101028.34;;;19.04
76009;BMP280;64700;52.130;21.270;2023-12-04T03:32:28;101036.00;;;19.05
76009;BMP280;64700;52.130;21.270;2023-12-04T03:34:53;101026.06;;;19.02
76009;BMP280;64700;52.130;21.270;2023-12-04T03:37:18;101033.44;;;19.02
76009;BMP280;64700;52.130;21.270;2023-12-04T03:39:43;101027.69;;;19.00
76009;BMP280;64700;52.130;21.270;2023-12-04T03:42:09;101028.47;;;19.00
76009;BMP280;64700;52.130;21.270;2023-12-04T03:44:34;101033.91;;;19.00
76009;BMP280;64700;52.130;21.270;2023-12-04T03:46:59;101028.47;;;19.00
76009;BMP280;64700;52.130;21.270;2023-12-04T03:49:24;101033.09;;;19.00
76009;BMP280;64700;52.130;21.270;2023-12-04T03:51:49;101037.75;;;18.99
76009;BMP280;64700;52.130;21.270;2023-12-04T03:54:14;101037.00;;;18.99
76009;BMP280;64700;52.130;21.270;2023-12-04T03:56:40;101040.47;;;18.99
76009;BMP280;64700;52.130;21.270;2023-12-04T03:59:05;101041.22;;;19.00
76009;BMP280;64700;52.130;21.270;2023-12-04T04:01:30;101044.38;;;18.98
76009;BMP280;64700;52.130;21.270;2023-12-04T04:03:56;101044.38;;;18.98
76009;BMP280;64700;52.130;21.270;2023-12-04T04:06:21;101044.03;;;18.96
76009;BMP280;64700;52.130;21.270;2023-12-04T04:08:46;101042.56;;;18.95
76009;BMP280;64700;52.130;21.270;2023-12-04T04:11:12;101048.72;;;18.96
76009;BMP280;64700;52.130;21.270;2023-12-04T04:13:37;101055.34;;;18.95
76009;BMP280;64700;52.130;21.270;2023-12-04T04:16:02;101048.41;;;18.94
76009;BMP280;64700;52.130;21.270;2023-12-04T04:18:29;101052.28;;;18.93
76009;BMP280;64700;52.130;21.270;2023-12-04T04:20:54;101052.75;;;18.91
76009;BMP280;64700;52.130;21.270;2023-12-04T04:23:20;101051.53;;;18.92
76009;BMP280;64700;52.130;21.270;2023-12-04T04:25:46;101052.75;;;18.91
76009;BMP280;64700;52.130;21.270;2023-12-04T04:28:11;101054.69;;;18.91
76009;BMP280;64700;52.130;21.270;2023-12-04T04:30:36;101052.00;;;18.91
76009;BMP280;64700;52.130;21.270;2023-12-04T04:33:02;101059.78;;;18.89
76009;BMP280;64700;52.130;21.270;2023-12-04T04:35:29;101054.38;;;18.89
76009;BMP280;64700;52.130;21.270;2023-12-04T04:37:54;101062.94;;;18.87
76009;BMP280;64700;52.130;21.270;2023-12-04T04:40:19;101056.31;;;18.88
76009;BMP280;64700;52.130;21.270;2023-12-04T04:42:45;101055.56;;;18.88
76009;BMP280;64700;52.130;21.270;2023-12-04T04:45:11;101052.84;;;18.88
76009;BMP280;64700;52.130;21.270;2023-12-04T04:47:37;101057.50;;;18.87
76009;BMP280;64700;52.130;21.270;2023-12-04T04:50:02;101064.91;;;18.87
76009;BMP280;64700;52.130;21.270;2023-12-04T04:52:28;101071.06;;;18.87
76009;BMP280;64700;52.130;21.270;2023-12-04T04:54:53;101062.94;;;18.87
76009;BMP280;64700;52.130;21.270;2023-12-04T04:57:18;101062.50;;;18.89
76009;BMP280;64700;52.130;21.270;2023-12-04T04:59:43;101065.97;;;18.89
76009;BMP280;64700;52.130;21.270;2023-12-04T05:02:08;101069.88;;;18.88
76009;BMP280;64700;52.130;21.270;2023-12-04T05:04:34;101064.44;;;18.88
76009;BMP280;64700;52.130;21.270;2023-12-04T05:06:59;101067.50;;;18.90
76009;BMP280;64700;52.130;21.270;2023-12-04T05:09:24;101060.13;;;18.91
76009;BMP280;64700;52.130;21.270;2023-12-04T05:11:49;101068.88;;;18.95
76009;BMP280;64700;52.130;21.270;2023-12-04T05:14:14;101071.03;;;19.00
76009;BMP280;64700;52.130;21.270;2023-12-04T05:16:40;101072.91;;;19.03
76009;BMP280;64700;52.130;21.270;2023-12-04T05:19:05;101076.69;;;19.05
76009;BMP280;64700;52.130;21.270;2023-12-04T05:21:30;101078.19;;;19.06
76009;BMP280;64700;52.130;21.270;2023-12-04T05:23:56;101071.59;;;19.07
76009;BMP280;64700;52.130;21.270;2023-12-04T05:26:21;101075.47;;;19.06
76009;BMP280;64700;52.130;21.270;2023-12-04T05:28:46;101076.69;;;19.05
76009;BMP280;64700;52.130;21.270;2023-12-04T05:31:11;101074.28;;;19.07
76009;BMP280;64700;52.130;21.270;2023-12-04T05:33:37;101069.94;;;19.10
76009;BMP280;64700;52.130;21.270;2023-12-04T05:36:02;101069.50;;;19.11
76009;BMP280;64700;52.130;21.270;2023-12-04T05:38:27;101078.72;;;19.14
76009;BMP280;64700;52.130;21.270;2023-12-04T05:40:53;101085.66;;;19.15
76009;BMP280;64700;52.130;21.270;2023-12-04T05:43:19;101083.72;;;19.15
76009;BMP280;64700;52.130;21.270;2023-12-04T05:45:44;101087.53;;;19.18
76009;BMP280;64700;52.130;21.270;2023-12-04T05:48:09;101087.53;;;19.18
76009;BMP280;64700;52.130;21.270;2023-12-04T05:50:35;101092.50;;;19.19
76009;BMP280;64700;52.130;21.270;2023-12-04T05:53:00;101092.81;;;19.21
76009;BMP280;64700;52.130;21.270;2023-12-04T05:55:25;101088.16;;;19.22
76009;BMP280;64700;52.130;21.270;2023-12-04T05:57:50;101083.03;;;19.24
76009;BMP280;64700;52.130;21.270;2023-12-04T06:00:16;101084.25;;;19.23
76009;BMP280;64700;52.130;21.270;2023-12-04T06:02:42;101097.81;;;19.23
76009;BMP280;64700;52.130;21.270;2023-12-04T06:05:07;101096.47;;;19.27
76009;BMP280;64700;52.130;21.270;2023-12-04T06:07:33;101101.91;;;19.27
76009;BMP280;64700;52.130;21.270;2023-12-04T06:09:58;101101.06;;;19.31
76009;BMP280;64700;52.130;21.270;2023-12-04T06:12:23;101092.47;;;19.32
76009;BMP280;64700;52.130;21.270;2023-12-04T06:14:48;101103.66;;;19.34
76009;BMP280;64700;52.130;21.270;2023-12-04T06:17:15;101100.81;;;19.38
76009;BMP280;64700;52.130;21.270;2023-12-04T06:19:40;101109.41;;;19.36
76009;BMP280;64700;52.130;21.270;2023-12-04T06:22:05;101106.22;;;19.38
76009;BMP280;64700;52.130;21.270;2023-12-04T06:24:30;101112.75;;;19.40
76009;BMP280;64700;52.130;21.270;2023-12-04T06:26:56;101097.97;;;19.41
76009;BMP280;64700;52.130;21.270;2023-12-04T06:29:22;101103.72;;;19.43
76009;BMP280;64700;52.130;21.270;2023-12-04T06:31:47;101098.72;;;19.42
76009;BMP280;64700;52.130;21.270;2023-12-04T06:34:13;101108.81;;;19.41
76009;BMP280;64700;52.130;21.270;2023-12-04T06:36:38;101101.44;;;19.42
76009;BMP280;64700;52.130;21.270;2023-12-04T06:39:07;101116.09;;;19.44
76009;BMP280;64700;52.130;21.270;2023-12-04T06:41:34;101109.91;;;19.44
76009;BMP280;64700;52.130;21.270;2023-12-04T06:43:59;101109.50;;;19.45
76009;BMP280;64700;52.130;21.270;2023-12-04T06:46:24;101122.31;;;19.45
76009;BMP280;64700;52.130;21.270;2023-12-04T06:48:52;101105.25;;;19.44
76009;BMP280;64700;52.130;21.270;2023-12-04T06:51:19;101115.34;;;19.44
76009;BMP280;64700;52.130;21.270;2023-12-04T06:53:44;101109.16;;;19.43
76009;BMP280;64700;52.130;21.270;2023-12-04T06:56:10;101114.16;;;19.45
76009;BMP280;64700;52.130;21.270;2023-12-04T06:58:35;101111.47;;;19.45
76009;BMP280;64700;52.130;21.270;2023-12-04T07:01:00;101107.53;;;19.46
76009;BMP280;64700;52.130;21.270;2023-12-04T07:03:26;101120.34;;;19.45
76009;BMP280;64700;52.130;21.270;2023-12-04T07:05:51;101114.94;;;19.45
76009;BMP280;64700;52.130;21.270;2023-12-04T07:08:16;101119.13;;;19.46
76009;BMP280;64700;52.130;21.270;2023-12-04T07:10:41;101115.66;;;19.46
76009;BMP280;64700;52.130;21.270;2023-12-04T07:13:06;101120.34;;;19.45
76009;BMP280;64700;52.130;21.270;2023-12-04T07:15:31;101119.13;;;19.46
76009;BMP280;64700;52.130;21.270;2023-12-04T07:17:57;101127.72;;;19.45
76009;BMP280;64700;52.130;21.270;2023-12-04T07:20:22;101127.72;;;19.45
76009;BMP280;64700;52.130;21.270;2023-12-04T07:22:48;101131.94;;;19.46
76009;BMP280;64700;52.130;21.270;2023-12-04T07:25:14;101136.63;;;19.45
76009;BMP280;64700;52.130;21.270;2023-12-04T07:27:39;101134.31;;;19.44
76009;BMP280;64700;52.130;21.270;2023-12-04T07:30:04;101135.09;;;19.44
76009;BMP280;64700;52.130;21.270;2023-12-04T07:32:30;101136.28;;;19.43
76009;BMP280;64700;52.130;21.270;2023-12-04T07:34:55;101137.78;;;19.44
76009;BMP280;64700;52.130;21.270;2023-12-04T07:37:20;101145.06;;;19.47
76009;BMP280;64700;52.130;21.270;2023-12-04T07:39:45;101133.56;;;19.43
76009;BMP280;64700;52.130;21.270;2023-12-04T07:42:11;101136.63;;;19.45
76009;BMP280;64700;52.130;21.270;2023-12-04T07:44:38;101134.97;;;19.48
76009;BMP280;64700;52.130;21.270;2023-12-04T07:47:03;101138.44;;;19.48
76009;BMP280;64700;52.130;21.270;2023-12-04T07:49:28;101142.34;;;19.47
76009;BMP280;64700;52.130;21.270;2023-12-04T07:51:53;101139.22;;;19.49
76009;BMP280;64700;52.130;21.270;2023-12-04T07:54:20;101136.81;;;19.51
76009;BMP280;64700;52.130;21.270;2023-12-04T07:56:46;101149.94;;;19.52
76009;BMP280;64700;52.130;21.270;2023-12-04T07:59:11;101138.66;;;19.54
76009;BMP280;64700;52.130;21.270;2023-12-04T08:01:36;101148.13;;;19.49
76009;BMP280;64700;52.130;21.270;2023-12-04T08:04:01;101147.66;;;19.51
76009;BMP280;64700;52.130;21.270;2023-12-04T08:06:27;101149.59;;;19.50
76009;BMP280;64700;52.130;21.270;2023-12-04T08:08:53;101144.94;;;19.51
76009;BMP280;64700;52.130;21.270;2023-12-04T08:11:19;101149.94;;;19.52
76009;BMP280;64700;52.130;21.270;2023-12-04T08:13:44;101155.78;;;19.51
76009;BMP280;64700;52.130;21.270;2023-12-04T08:16:15;101156.88;;;19.53
76009;BMP280;64700;52.130;21.270;2023-12-04T08:18:41;101152.22;;;19.54
76009;BMP280;64700;52.130;21.270;2023-12-04T08:21:06;101160.34;;;19.54
76009;BMP280;64700;52.130;21.270;2023-12-04T08:23:31;101160.78;;;19.52
76009;BMP280;64700;52.130;21.270;2023-12-04T08:25:57;101156.56;;;19.51
76009;BMP280;64700;52.130;21.270;2023-12-04T08:28:22;101156.13;;;19.53
76009;BMP280;64700;52.130;21.270;2023-12-04T08:30:47;101162.31;;;19.53
76009;BMP280;64700;52.130;21.270;2023-12-04T08:33:13;101161.97;;;19.51
76009;BMP280;64700;52.130;21.270;2023-12-04T08:35:38;101160.44;;;19.50
76009;BMP280;64700;52.130;21.270;2023-12-04T08:38:03;101167.41;;;19.51
76009;BMP280;64700;52.130;21.270;2023-12-04T08:40:30;101166.22;;;19.52
76009;BMP280;64700;52.130;21.270;2023-12-04T08:42:55;101166.50;;;19.54
76009;BMP280;64700;52.130;21.270;2023-12-04T08:45:20;101173.91;;;19.54
76009;BMP280;64700;52.130;21.270;2023-12-04T08:47:45;101173.16;;;19.53
76009;BMP280;64700;52.130;21.270;2023-12-04T08:50:11;101163.63;;;19.49
76009;BMP280;64700;52.130;21.270;2023-12-04T08:52:36;101171.94;;;19.54
76009;BMP280;64700;52.130;21.270;2023-12-04T08:55:01;101186.25;;;19.55
76009;BMP280;64700;52.130;21.270;2023-12-04T08:57:26;101193.97;;;19.56
76009;BMP280;64700;52.130;21.270;2023-12-04T08:59:52;101187.91;;;19.52
76009;BMP280;64700;52.130;21.270;2023-12-04T09:02:17;101188.22;;;19.54
76009;BMP280;64700;52.130;21.270;2023-12-04T09:04:42;101185.50;;;19.54
76009;BMP280;64700;52.130;21.270;2023-12-04T09:07:08;101190.63;;;19.52
76009;BMP280;64700;52.130;21.270;2023-12-04T09:09:33;101191.38;;;19.53
76009;BMP280;64700;52.130;21.270;2023-12-04T09:11:58;101184.78;;;19.54
76009;BMP280;64700;52.130;21.270;2023-12-04T09:14:23;101188.34;;;19.51
76009;BMP280;64700;52.130;21.270;2023-12-04T09:16:49;101189.88;;;19.52
76009;BMP280;64700;52.130;21.270;2023-12-04T09:19:14;101194.41;;;19.55
76009;BMP280;64700;52.130;21.270;2023-12-04T09:21:39;101190.19;;;19.54
76009;BMP280;64700;52.130;21.270;2023-12-04T09:24:05;101190.63;;;19.52
76009;BMP280;64700;52.130;21.270;2023-12-04T09:26:30;101186.72;;;19.53
76009;BMP280;64700;52.130;21.270;2023-12-04T09:28:56;101183.25;;;19.53
76009;BMP280;64700;52.130;21.270;2023-12-04T09:31:22;101178.25;;;19.51
76009;BMP280;64700;52.130;21.270;2023-12-04T09:33:47;101174.03;;;19.50
76009;BMP280;64700;52.130;21.270;2023-12-04T09:36:12;101170.88;;;19.52
76009;BMP280;64700;52.130;21.270;2023-12-04T09:38:37;101173.25;;;19.50
76009;BMP280;64700;52.130;21.270;2023-12-04T09:41:03;101174.34;;;19.52
76009;BMP280;64700;52.130;21.270;2023-12-04T09:43:31;101170.88;;;19.52
76009;BMP280;64700;52.130;21.270;2023-12-04T09:45:56;101175.22;;;19.49
76009;BMP280;64700;52.130;21.270;2023-12-04T09:48:22;101168.59;;;19.50
76009;BMP280;64700;52.130;21.270;2023-12-04T09:50:49;101181.72;;;19.52
76009;BMP280;64700;52.130;21.270;2023-12-04T09:53:14;101169.47;;;19.47
76009;BMP280;64700;52.130;21.270;2023-12-04T09:55:40;101165.56;;;19.48
76009;BMP280;64700;52.130;21.270;2023-12-04T09:58:05;101163.63;;;19.49
76009;BMP280;64700;52.130;21.270;2023-12-04T10:00:30;101159.41;;;19.48
76009;BMP280;64700;52.130;21.270;2023-12-04T10:02:56;101167.19;;;19.46
76009;BMP280;64700;52.130;21.270;2023-12-04T10:05:22;101163.28;;;19.47
76009;BMP280;64700;52.130;21.270;2023-12-04T10:07:47;101167.53;;;19.48
76009;BMP280;64700;52.130;21.270;2023-12-04T10:10:13;101161.03;;;19.45
76009;BMP280;64700;52.130;21.270;2023-12-04T10:12:39;101165.72;;;19.45
76009;BMP280;64700;52.130;21.270;2023-12-04T10:15:11;101160.28;;;19.45
76009;BMP280;64700;52.130;21.270;2023-12-04T10:17:37;101164.16;;;19.44
76009;BMP280;64700;52.130;21.270;2023-12-04T10:22:37;101163.00;;;19.45
76009;BMP280;64700;52.130;21.270;2023-12-04T10:25:15;101161.03;;;19.45
76009;BMP280;64700;52.130;21.270;2023-12-04T10:27:41;101161.88;;;19.42
76009;BMP280;64700;52.130;21.270;2023-12-04T10:30:06;101151.78;;;19.43
76009;BMP280;64700;52.130;21.270;2023-12-04T10:32:35;101158.72;;;19.44
76009;BMP280;64700;52.130;21.270;2023-12-04T10:35:01;101156.78;;;19.44
76009;BMP280;64700;52.130;21.270;2023-12-04T10:37:28;101164.16;;;19.44
76009;BMP280;64700;52.130;21.270;2023-12-04T10:39:54;101164.16;;;19.44
76009;BMP280;64700;52.130;21.270;2023-12-04T10:42:28;101166.88;;;19.44
76009;BMP280;64700;52.130;21.270;2023-12-04T10:44:55;101160.28;;;19.45
76009;BMP280;64700;52.130;21.270;2023-12-04T10:47:21;101154.06;;;19.44
76009;BMP280;64700;52.130;21.270;2023-12-04T10:49:48;101156.78;;;19.44
76009;BMP280;64700;52.130;21.270;2023-12-04T10:52:16;101158.31;;;19.45
76009;BMP280;64700;52.130;21.270;2023-12-04T10:54:41;101154.84;;;19.45
76009;BMP280;64700;52.130;21.270;2023-12-04T10:57:06;101157.44;;;19.48
76009;BMP280;64700;52.130;21.270;2023-12-04T10:59:36;101157.88;;;19.47
76009;BMP280;64700;52.130;21.270;2023-12-04T11:02:03;101161.97;;;19.51
76009;BMP280;64700;52.130;21.270;2023-12-04T11:04:29;101166.22;;;19.52
76009;BMP280;64700;52.130;21.270;2023-12-04T11:06:56;101165.03;;;19.53
76009;BMP280;64700;52.130;21.270;2023-12-04T11:09:21;101165.78;;;19.54
76009;BMP280;64700;52.130;21.270;2023-12-04T11:11:53;101166.09;;;19.56
76009;BMP280;64700;52.130;21.270;2023-12-04T11:14:21;101166.09;;;19.56
76009;BMP280;64700;52.130;21.270;2023-12-04T11:16:48;101157.50;;;19.57
76009;BMP280;64700;52.130;21.270;2023-12-04T11:19:18;101154.47;;;19.55
76009;BMP280;64700;52.130;21.270;2023-12-04T11:21:45;101159.13;;;19.55
76009;BMP280;64700;52.130;21.270;2023-12-04T11:24:11;101162.19;;;19.57
76009;BMP280;64700;52.130;21.270;2023-12-04T11:26:37;101160.88;;;19.61
76009;BMP280;64700;52.130;21.270;2023-12-04T11:29:02;101160.88;;;19.61
76009;BMP280;64700;52.130;21.270;2023-12-04T11:31:30;101162.09;;;19.60
76009;BMP280;64700;52.130;21.270;2023-12-04T11:34:00;101163.59;;;19.61
76009;BMP280;64700;52.130;21.270;2023-12-04T11:36:26;101161.66;;;19.62
76009;BMP280;64700;52.130;21.270;2023-12-04T11:38:51;101162.41;;;19.62
76009;BMP280;64700;52.130;21.270;2023-12-04T11:41:17;101168.56;;;19.63
76009;BMP280;64700;52.130;21.270;2023-12-04T11:43:42;101169.03;;;19.61
76009;BMP280;64700;52.130;21.270;2023-12-04T11:46:09;101155.47;;;19.61
76009;BMP280;64700;52.130;21.270;2023-12-04T11:48:36;101155.00;;;19.63
76009;BMP280;64700;52.130;21.270;2023-12-04T11:51:01;101154.28;;;19.62
76009;BMP280;64700;52.130;21.270;2023-12-04T11:53:27;101152.00;;;19.61
76009;BMP280;64700;52.130;21.270;2023-12-04T11:55:52;101145.66;;;19.64
76009;BMP280;64700;52.130;21.270;2023-12-04T11:58:20;101151.09;;;19.64
76009;BMP280;64700;52.130;21.270;2023-12-04T12:00:46;101137.22;;;19.62
76009;BMP280;64700;52.130;21.270;2023-12-04T12:03:13;101149.91;;;19.65
76009;BMP280;64700;52.130;21.270;2023-12-04T12:05:39;101138.72;;;19.63
76009;BMP280;64700;52.130;21.270;2023-12-04T12:08:05;101141.78;;;19.65
76009;BMP280;64700;52.130;21.270;2023-12-04T12:10:31;101138.72;;;19.63
76009;BMP280;64700;52.130;21.270;2023-12-04T12:12:57;101143.41;;;19.62
76009;BMP280;64700;52.130;21.270;2023-12-04T12:15:22;101143.72;;;19.64
76009;BMP280;64700;52.130;21.270;2023-12-04T12:17:49;101136.34;;;19.65
76009;BMP280;64700;52.130;21.270;2023-12-04T12:20:14;101139.81;;;19.65
76009;BMP280;64700;52.130;21.270;2023-12-04T12:22:39;101135.59;;;19.64
76009;BMP280;64700;52.130;21.270;2023-12-04T12:25:06;101137.53;;;19.64
76009;BMP280;64700;52.130;21.270;2023-12-04T12:27:32;101135.59;;;19.64
76009;BMP280;64700;52.130;21.270;2023-12-04T12:29:57;101123.09;;;19.67
76009;BMP280;64700;52.130;21.270;2023-12-04T12:32:22;101122.78;;;19.65
76009;BMP280;64700;52.130;21.270;2023-12-04T12:34:48;101115.06;;;19.63
76009;BMP280;64700;52.130;21.270;2023-12-04T12:37:13;101115.69;;;19.67
76009;BMP280;64700;52.130;21.270;2023-12-04T12:39:38;101123.09;;;19.67
76009;BMP280;64700;52.130;21.270;2023-12-04T12:42:04;101120.81;;;19.65
76009;BMP280;64700;52.130;21.270;2023-12-04T12:44:36;101129.38;;;19.64
76009;BMP280;64700;52.130;21.270;2023-12-04T12:47:02;101119.31;;;19.64
76009;BMP280;64700;52.130;21.270;2023-12-04T12:49:27;101123.97;;;19.64
76009;BMP280;64700;52.130;21.270;2023-12-04T12:51:52;101119.63;;;19.66
76009;BMP280;64700;52.130;21.270;2023-12-04T12:54:23;101114.63;;;19.65
76009;BMP280;64700;52.130;21.270;2023-12-04T12:56:48;101109.97;;;19.65
76009;BMP280;64700;52.130;21.270;2023-12-04T12:59:13;101113.88;;;19.64
76009;BMP280;64700;52.130;21.270;2023-12-04T13:01:38;101119.72;;;19.63
76009;BMP280;64700;52.130;21.270;2023-12-04T13:04:04;101110.84;;;19.62
76009;BMP280;64700;52.130;21.270;2023-12-04T13:06:29;101115.53;;;19.62
76009;BMP280;64700;52.130;21.270;2023-12-04T13:08:54;101104.97;;;19.64
76009;BMP280;64700;52.130;21.270;2023-12-04T13:11:20;101109.63;;;19.63
76009;BMP280;64700;52.130;21.270;2023-12-04T13:13:45;101103.34;;;19.66
76009;BMP280;64700;52.130;21.270;2023-12-04T13:16:10;101099.88;;;19.66
76009;BMP280;64700;52.130;21.270;2023-12-04T13:18:35;101100.31;;;19.64
76009;BMP280;64700;52.130;21.270;2023-12-04T13:21:02;101106.94;;;19.63
76009;BMP280;64700;52.130;21.270;2023-12-04T13:23:28;101098.34;;;19.65
76009;BMP280;64700;52.130;21.270;2023-12-04T13:25:53;101100.31;;;19.64
76009;BMP280;64700;52.130;21.270;2023-12-04T13:28:19;101094.13;;;19.64
76009;BMP280;64700;52.130;21.270;2023-12-04T13:30:44;101094.44;;;19.66
76009;BMP280;64700;52.130;21.270;2023-12-04T13:33:10;101089.78;;;19.66
76009;BMP280;64700;52.130;21.270;2023-12-04T13:35:35;101093.25;;;19.67
76009;BMP280;64700;52.130;21.270;2023-12-04T13:38:00;101087.06;;;19.66